sensor_id;sensor_type;location;lat;lon;timestamp;pressure;altitude;pressure_sealevel;temperature;humidity
67803;BME280;54601;51.378;-1.342;2023-04-03T00:01:34;101714.13;;;19.27;29.36
67803;BME280;54601;51.378;-1.342;2023-04-03T00:03:59;101714.12;;;19.28;29.33
67803;BME280;54601;51.378;-1.342;2023-04-03T00:06:26;101713.13;;;19.01;29.32
67803;BME280;54601;51.378;-1.342;2023-04-03T00:08:50;101712.81;;;19.24;29.35
67803;BME280;54601;51.378;-1.342;2023-04-03T00:11:14;101718.25;;;19.44;29.13
67803;BME280;54601;51.378;-1.342;2023-04-03T00:13:39;101722.77;;;19.43;29.13
67803;BME280;54601;51.378;-1.342;2023-04-03T00:16:06;101722.52;;;19.31;29.28
67803;BME280;54601;51.378;-1.342;2023-04-03T00:18:30;101719.19;;;19.38;29.16
67803;BME280;54601;51.378;-1.342;2023-04-03T00:20:55;101718.91;;;19.02;29.26
67803;BME280;54601;51.378;-1.342;2023-04-03T00:23:20;101717.67;;;19.24;29.28
67803;BME280;54601;51.378;-1.342;2023-04-03T00:25:45;101720.00;;;19.20;29.31
67803;BME280;54601;51.378;-1.342;2023-04-03T00:28:11;101715.06;;;19.46;29.27
67803;BME280;54601;51.378;-1.342;2023-04-03T00:30:36;101714.93;;;19.42;29.29
67803;BME280;54601;51.378;-1.342;2023-04-03T00:33:01;101711.97;;;19.01;29.19
67803;BME280;54601;51.378;-1.342;2023-04-03T00:35:26;101705.20;;;19.01;29.20
67803;BME280;54601;51.378;-1.342;2023-04-03T00:37:52;101704.21;;;19.07;29.12
67803;BME280;54601;51.378;-1.342;2023-04-03T00:40:17;101705.23;;;19.15;29.02
67803;BME280;54601;51.378;-1.342;2023-04-03T00:42:43;101706.61;;;19.18;28.96
67803;BME280;54601;51.378;-1.342;2023-04-03T00:47:32;101707.36;;;19.40;28.97
67803;BME280;54601;51.378;-1.342;2023-04-03T00:49:58;101707.30;;;19.20;28.87
67803;BME280;54601;51.378;-1.342;2023-04-03T00:52:28;101710.18;;;19.06;28.98
67803;BME280;54601;51.378;-1.342;2023-04-03T00:54:49;101710.42;;;19.16;29.18
67803;BME280;54601;51.378;-1.342;2023-04-03T00:57:13;101704.36;;;19.24;29.08
67803;BME280;54601;51.378;-1.342;2023-04-03T00:59:40;101703.94;;;19.01;29.09
67803;BME280;54601;51.378;-1.342;2023-04-03T01:02:03;101705.81;;;19.34;28.99
67803;BME280;54601;51.378;-1.342;2023-04-03T01:04:30;101703.08;;;19.37;28.94
67803;BME280;54601;51.378;-1.342;2023-04-03T01:06:54;101699.44;;;19.27;28.98
67803;BME280;54601;51.378;-1.342;2023-04-03T01:09:18;101700.13;;;19.20;29.09
67803;BME280;54601;51.378;-1.342;2023-04-03T01:11:43;101702.43;;;19.04;28.98
67803;BME280;54601;51.378;-1.342;2023-04-03T01:14:09;101706.40;;;19.26;29.00
67803;BME280;54601;51.378;-1.342;2023-04-03T01:16:34;101699.33;;;19.26;28.94
67803;BME280;54601;51.378;-1.342;2023-04-03T01:18:59;101700.09;;;19.00;28.90
67803;BME280;54601;51.378;-1.342;2023-04-03T01:23:58;101697.02;;;19.45;28.93
67803;BME280;54601;51.378;-1.342;2023-04-03T01:26:15;101696.42;;;19.26;28.89
67803;BME280;54601;51.378;-1.342;2023-04-03T01:28:40;101697.05;;;19.55;28.77
67803;BME280;54601;51.378;-1.342;2023-04-03T01:31:13;101699.56;;;19.26;28.81
67803;BME280;54601;51.378;-1.342;2023-04-03T01:33:30;101700.01;;;19.18;28.59
67803;BME280;54601;51.378;-1.342;2023-04-03T01:35:55;101701.17;;;19.49;28.76
67803;BME280;54601;51.378;-1.342;2023-04-03T01:38:20;101693.05;;;19.55;28.67
67803;BME280;54601;51.378;-1.342;2023-04-03T01:40:46;101689.41;;;19.31;28.71
67803;BME280;54601;51.378;-1.342;2023-04-03T01:43:11;101686.27;;;19.56;28.61
67803;BME280;54601;51.378;-1.342;2023-04-03T01:45:36;101686.94;;;19.45;28.74
67803;BME280;54601;51.378;-1.342;2023-04-03T01:48:01;101687.11;;;19.49;28.68
67803;BME280;54601;51.378;-1.342;2023-04-03T01:50:26;101685.28;;;19.35;28.82
67803;BME280;54601;51.378;-1.342;2023-04-03T01:52:51;101684.90;;;19.44;28.73
67803;BME280;54601;51.378;-1.342;2023-04-03T01:55:17;101686.75;;;19.18;28.70
67803;BME280;54601;51.378;-1.342;2023-04-03T01:57:42;101685.47;;;19.28;28.66
67803;BME280;54601;51.378;-1.342;2023-04-03T02:00:08;101688.78;;;19.27;28.66
67803;BME280;54601;51.378;-1.342;2023-04-03T02:02:32;101687.19;;;19.34;28.75
67803;BME280;54601;51.378;-1.342;2023-04-03T02:04:58;101684.19;;;19.17;28.89
67803;BME280;54601;51.378;-1.342;2023-04-03T02:07:23;101686.81;;;19.44;28.67
67803;BME280;54601;51.378;-1.342;2023-04-03T02:09:48;101686.74;;;19.38;28.69
67803;BME280;54601;51.378;-1.342;2023-04-03T02:12:13;101687.61;;;19.35;28.70
67803;BME280;54601;51.378;-1.342;2023-04-03T02:14:38;101684.90;;;19.12;28.70
67803;BME280;54601;51.378;-1.342;2023-04-03T02:17:03;101690.88;;;18.79;28.76
67803;BME280;54601;51.378;-1.342;2023-04-03T02:19:28;101691.50;;;19.19;28.87
67803;BME280;54601;51.378;-1.342;2023-04-03T02:21:54;101690.37;;;19.10;28.71
67803;BME280;54601;51.378;-1.342;2023-04-03T02:24:19;101693.22;;;19.21;28.85
67803;BME280;54601;51.378;-1.342;2023-04-03T02:26:44;101694.03;;;19.07;28.77
67803;BME280;54601;51.378;-1.342;2023-04-03T02:29:09;101691.42;;;19.04;28.77
67803;BME280;54601;51.378;-1.342;2023-04-03T02:31:34;101692.37;;;19.25;28.76
67803;BME280;54601;51.378;-1.342;2023-04-03T02:33:59;101691.10;;;18.74;28.76
67803;BME280;54601;51.378;-1.342;2023-04-03T02:36:25;101689.12;;;19.02;28.75
67803;BME280;54601;51.378;-1.342;2023-04-03T02:38:50;101690.45;;;19.25;28.77
67803;BME280;54601;51.378;-1.342;2023-04-03T02:41:15;101692.55;;;19.12;28.85
67803;BME280;54601;51.378;-1.342;2023-04-03T02:43:40;101695.65;;;19.14;28.89
67803;BME280;54601;51.378;-1.342;2023-04-03T02:46:06;101696.23;;;18.89;28.86
67803;BME280;54601;51.378;-1.342;2023-04-03T02:48:31;101691.74;;;19.14;28.60
67803;BME280;54601;51.378;-1.342;2023-04-03T02:50:56;101692.08;;;19.02;28.74
67803;BME280;54601;51.378;-1.342;2023-04-03T02:53:21;101697.13;;;18.92;28.84
67803;BME280;54601;51.378;-1.342;2023-04-03T02:55:46;101693.82;;;19.10;28.67
67803;BME280;54601;51.378;-1.342;2023-04-03T02:58:12;101694.47;;;19.20;28.76
67803;BME280;54601;51.378;-1.342;2023-04-03T03:00:37;101694.30;;;19.26;28.72
67803;BME280;54601;51.378;-1.342;2023-04-03T03:03:02;101694.24;;;18.82;28.92
67803;BME280;54601;51.378;-1.342;2023-04-03T03:05:27;101687.37;;;18.97;29.00
67803;BME280;54601;51.378;-1.342;2023-04-03T03:07:52;101683.95;;;18.88;28.85
67803;BME280;54601;51.378;-1.342;2023-04-03T03:10:17;101685.77;;;18.84;28.94
67803;BME280;54601;51.378;-1.342;2023-04-03T03:12:43;101682.92;;;18.90;28.86
67803;BME280;54601;51.378;-1.342;2023-04-03T03:15:08;101678.43;;;18.93;29.04
67803;BME280;54601;51.378;-1.342;2023-04-03T03:17:33;101677.44;;;19.29;28.72
67803;BME280;54601;51.378;-1.342;2023-04-03T03:19:59;101673.74;;;18.76;28.75
67803;BME280;54601;51.378;-1.342;2023-04-03T03:22:23;101671.38;;;18.93;28.83
67803;BME280;54601;51.378;-1.342;2023-04-03T03:24:49;101675.23;;;19.06;28.96
67803;BME280;54601;51.378;-1.342;2023-04-03T03:27:14;101670.29;;;18.86;28.93
67803;BME280;54601;51.378;-1.342;2023-04-03T03:29:39;101670.20;;;19.05;28.73
67803;BME280;54601;51.378;-1.342;2023-04-03T03:32:04;101671.88;;;19.03;29.01
67803;BME280;54601;51.378;-1.342;2023-04-03T03:34:30;101666.87;;;19.04;28.98
67803;BME280;54601;51.378;-1.342;2023-04-03T03:36:55;101667.90;;;19.07;28.95
67803;BME280;54601;51.378;-1.342;2023-04-03T03:39:20;101670.39;;;19.07;28.74
67803;BME280;54601;51.378;-1.342;2023-04-03T03:41:45;101669.46;;;19.39;28.65
67803;BME280;54601;51.378;-1.342;2023-04-03T03:44:10;101669.20;;;19.21;28.84
67803;BME280;54601;51.378;-1.342;2023-04-03T03:46:35;101668.76;;;19.24;28.81
67803;BME280;54601;51.378;-1.342;2023-04-03T03:49:01;101666.81;;;19.22;28.65
67803;BME280;54601;51.378;-1.342;2023-04-03T03:51:26;101667.61;;;19.42;28.68
67803;BME280;54601;51.378;-1.342;2023-04-03T03:53:51;101667.73;;;18.99;28.85
67803;BME280;54601;51.378;-1.342;2023-04-03T03:56:16;101666.26;;;19.27;28.83
67803;BME280;54601;51.378;-1.342;2023-04-03T03:58:41;101664.39;;;18.79;28.82
67803;BME280;54601;51.378;-1.342;2023-04-03T04:01:07;101670.52;;;19.50;28.61
67803;BME280;54601;51.378;-1.342;2023-04-03T04:03:32;101665.44;;;19.11;28.53
67803;BME280;54601;51.378;-1.342;2023-04-03T04:05:57;101665.34;;;19.20;28.41
67803;BME280;54601;51.378;-1.342;2023-04-03T04:08:22;101664.38;;;19.15;28.47
67803;BME280;54601;51.378;-1.342;2023-04-03T04:10:48;101661.65;;;19.28;28.62
67803;BME280;54601;51.378;-1.342;2023-04-03T04:13:13;101661.04;;;19.31;28.60
67803;BME280;54601;51.378;-1.342;2023-04-03T04:15:38;101660.23;;;19.68;28.45
67803;BME280;54601;51.378;-1.342;2023-04-03T04:18:03;101657.22;;;19.20;28.47
67803;BME280;54601;51.378;-1.342;2023-04-03T04:20:28;101652.26;;;19.66;28.27
67803;BME280;54601;51.378;-1.342;2023-04-03T04:22:54;101652.16;;;19.38;28.30
67803;BME280;54601;51.378;-1.342;2023-04-03T04:25:19;101651.08;;;19.19;28.46
67803;BME280;54601;51.378;-1.342;2023-04-03T04:27:44;101649.93;;;19.06;28.62
67803;BME280;54601;51.378;-1.342;2023-04-03T04:30:10;101651.55;;;18.91;28.78
67803;BME280;54601;51.378;-1.342;2023-04-03T04:32:34;101651.89;;;19.06;28.64
67803;BME280;54601;51.378;-1.342;2023-04-03T04:35:00;101652.80;;;19.32;28.65
67803;BME280;54601;51.378;-1.342;2023-04-03T04:37:25;101652.87;;;19.20;28.80
67803;BME280;54601;51.378;-1.342;2023-04-03T04:39:50;101652.17;;;19.31;28.68
67803;BME280;54601;51.378;-1.342;2023-04-03T04:42:15;101656.12;;;19.01;28.74
67803;BME280;54601;51.378;-1.342;2023-04-03T04:44:40;101655.92;;;19.06;28.68
67803;BME280;54601;51.378;-1.342;2023-04-03T04:47:05;101653.98;;;19.24;28.77
67803;BME280;54601;51.378;-1.342;2023-04-03T04:49:31;101657.62;;;19.41;28.64
67803;BME280;54601;51.378;-1.342;2023-04-03T04:51:56;101654.45;;;19.25;28.78
67803;BME280;54601;51.378;-1.342;2023-04-03T04:54:21;101650.84;;;19.41;28.62
67803;BME280;54601;51.378;-1.342;2023-04-03T04:56:46;101648.60;;;19.07;28.68
67803;BME280;54601;51.378;-1.342;2023-04-03T04:59:11;101646.79;;;19.06;28.68
67803;BME280;54601;51.378;-1.342;2023-04-03T05:01:36;101646.79;;;19.37;28.64
67803;BME280;54601;51.378;-1.342;2023-04-03T05:04:02;101646.40;;;19.39;28.60
67803;BME280;54601;51.378;-1.342;2023-04-03T05:06:27;101649.56;;;19.27;28.74
67803;BME280;54601;51.378;-1.342;2023-04-03T05:08:52;101650.20;;;19.42;28.58
67803;BME280;54601;51.378;-1.342;2023-04-03T05:11:17;101648.78;;;19.19;28.51
67803;BME280;54601;51.378;-1.342;2023-04-03T05:13:42;101651.16;;;19.09;28.60
67803;BME280;54601;51.378;-1.342;2023-04-03T05:16:07;101650.23;;;19.34;28.35
67803;BME280;54601;51.378;-1.342;2023-04-03T05:18:33;101650.25;;;19.23;28.46
67803;BME280;54601;51.378;-1.342;2023-04-03T05:20:58;101650.00;;;19.16;28.50
67803;BME280;54601;51.378;-1.342;2023-04-03T05:23:23;101651.34;;;19.21;28.44
67803;BME280;54601;51.378;-1.342;2023-04-03T05:25:48;101652.12;;;19.44;28.22
67803;BME280;54601;51.378;-1.342;2023-04-03T05:28:13;101656.87;;;19.10;28.52
67803;BME280;54601;51.378;-1.342;2023-04-03T05:30:38;101660.31;;;19.46;28.42
67803;BME280;54601;51.378;-1.342;2023-04-03T05:33:04;101662.71;;;19.24;28.33
67803;BME280;54601;51.378;-1.342;2023-04-03T05:35:29;101664.05;;;19.63;28.24
67803;BME280;54601;51.378;-1.342;2023-04-03T05:37:54;101664.68;;;19.39;28.20
67803;BME280;54601;51.378;-1.342;2023-04-03T05:40:19;101665.88;;;19.36;28.21
67803;BME280;54601;51.378;-1.342;2023-04-03T05:42:44;101668.98;;;19.35;28.18
67803;BME280;54601;51.378;-1.342;2023-04-03T05:45:10;101669.49;;;19.45;28.09
67803;BME280;54601;51.378;-1.342;2023-04-03T05:47:35;101667.48;;;19.34;27.96
67803;BME280;54601;51.378;-1.342;2023-04-03T05:50:00;101670.48;;;19.26;28.23
67803;BME280;54601;51.378;-1.342;2023-04-03T05:52:27;101670.44;;;19.51;28.21
67803;BME280;54601;51.378;-1.342;2023-04-03T05:54:50;101669.20;;;19.12;28.37
67803;BME280;54601;51.378;-1.342;2023-04-03T05:57:16;101672.51;;;19.27;28.19
67803;BME280;54601;51.378;-1.342;2023-04-03T05:59:41;101669.74;;;19.45;28.01
67803;BME280;54601;51.378;-1.342;2023-04-03T06:02:06;101670.14;;;19.54;27.92
67803;BME280;54601;51.378;-1.342;2023-04-03T06:04:31;101670.07;;;19.23;28.20
67803;BME280;54601;51.378;-1.342;2023-04-03T06:06:57;101670.67;;;19.02;28.44
67803;BME280;54601;51.378;-1.342;2023-04-03T06:09:23;101673.16;;;19.58;28.34
67803;BME280;54601;51.378;-1.342;2023-04-03T06:11:47;101672.43;;;19.14;28.27
67803;BME280;54601;51.378;-1.342;2023-04-03T06:14:12;101673.76;;;19.69;28.18
67803;BME280;54601;51.378;-1.342;2023-04-03T06:16:37;101674.81;;;19.02;28.35
67803;BME280;54601;51.378;-1.342;2023-04-03T06:19:02;101677.06;;;19.45;28.40
67803;BME280;54601;51.378;-1.342;2023-04-03T06:21:28;101676.01;;;18.93;28.41
67803;BME280;54601;51.378;-1.342;2023-04-03T06:23:52;101676.51;;;19.23;28.39
67803;BME280;54601;51.378;-1.342;2023-04-03T06:26:18;101676.92;;;19.23;28.36
67803;BME280;54601;51.378;-1.342;2023-04-03T06:28:43;101679.22;;;19.29;28.29
67803;BME280;54601;51.378;-1.342;2023-04-03T06:31:08;101680.41;;;19.27;28.29
67803;BME280;54601;51.378;-1.342;2023-04-03T06:33:33;101679.88;;;19.61;28.16
67803;BME280;54601;51.378;-1.342;2023-04-03T06:35:59;101678.03;;;19.06;28.48
67803;BME280;54601;51.378;-1.342;2023-04-03T06:38:24;101677.12;;;19.01;28.48
67803;BME280;54601;51.378;-1.342;2023-04-03T06:40:49;101674.77;;;19.12;28.36
67803;BME280;54601;51.378;-1.342;2023-04-03T06:43:14;101671.45;;;19.02;28.49
67803;BME280;54601;51.378;-1.342;2023-04-03T06:45:39;101677.57;;;19.20;28.30
67803;BME280;54601;51.378;-1.342;2023-04-03T06:48:05;101673.71;;;19.41;28.08
67803;BME280;54601;51.378;-1.342;2023-04-03T06:50:30;101673.09;;;19.58;27.92
67803;BME280;54601;51.378;-1.342;2023-04-03T06:52:55;101670.25;;;19.42;28.03
67803;BME280;54601;51.378;-1.342;2023-04-03T06:55:20;101672.13;;;19.24;27.89
67803;BME280;54601;51.378;-1.342;2023-04-03T06:57:45;101672.63;;;19.51;28.12
67803;BME280;54601;51.378;-1.342;2023-04-03T07:00:11;101672.05;;;19.30;28.06
67803;BME280;54601;51.378;-1.342;2023-04-03T07:02:35;101674.53;;;19.02;28.31
67803;BME280;54601;51.378;-1.342;2023-04-03T07:05:01;101677.85;;;19.13;28.23
67803;BME280;54601;51.378;-1.342;2023-04-03T07:07:26;101673.71;;;18.72;28.35
67803;BME280;54601;51.378;-1.342;2023-04-03T07:09:51;101673.06;;;19.59;27.96
67803;BME280;54601;51.378;-1.342;2023-04-03T07:12:16;101672.16;;;19.13;28.22
67803;BME280;54601;51.378;-1.342;2023-04-03T07:14:41;101671.25;;;19.52;28.05
67803;BME280;54601;51.378;-1.342;2023-04-03T07:17:06;101668.58;;;18.87;28.24
67803;BME280;54601;51.378;-1.342;2023-04-03T07:19:32;101667.37;;;19.01;28.13
67803;BME280;54601;51.378;-1.342;2023-04-03T07:21:57;101666.47;;;19.14;28.24
67803;BME280;54601;51.378;-1.342;2023-04-03T07:24:23;101663.95;;;19.09;28.29
67803;BME280;54601;51.378;-1.342;2023-04-03T07:26:49;101666.10;;;19.09;28.36
67803;BME280;54601;51.378;-1.342;2023-04-03T07:29:12;101668.76;;;18.95;28.23
67803;BME280;54601;51.378;-1.342;2023-04-03T07:31:39;101670.02;;;18.97;28.36
67803;BME280;54601;51.378;-1.342;2023-04-03T07:34:03;101667.68;;;18.67;28.47
67803;BME280;54601;51.378;-1.342;2023-04-03T07:36:28;101671.27;;;18.98;28.55
67803;BME280;54601;51.378;-1.342;2023-04-03T07:38:53;101674.96;;;18.76;28.72
67803;BME280;54601;51.378;-1.342;2023-04-03T07:41:19;101670.35;;;19.02;28.54
67803;BME280;54601;51.378;-1.342;2023-04-03T07:43:43;101670.87;;;18.71;28.89
67803;BME280;54601;51.378;-1.342;2023-04-03T07:46:08;101674.85;;;18.64;29.06
67803;BME280;54601;51.378;-1.342;2023-04-03T07:48:33;101675.85;;;18.69;29.28
67803;BME280;54601;51.378;-1.342;2023-04-03T07:50:59;101668.89;;;18.00;29.76
67803;BME280;54601;51.378;-1.342;2023-04-03T07:53:24;101664.16;;;17.65;30.09
67803;BME280;54601;51.378;-1.342;2023-04-03T07:55:49;101663.10;;;17.51;30.45
67803;BME280;54601;51.378;-1.342;2023-04-03T07:58:16;101663.76;;;17.63;30.42
67803;BME280;54601;51.378;-1.342;2023-04-03T08:00:39;101664.47;;;17.96;30.28
67803;BME280;54601;51.378;-1.342;2023-04-03T08:03:05;101662.01;;;17.54;30.57
67803;BME280;54601;51.378;-1.342;2023-04-03T08:05:30;101668.12;;;17.68;30.61
67803;BME280;54601;51.378;-1.342;2023-04-03T08:07:55;101667.51;;;17.53;30.74
67803;BME280;54601;51.378;-1.342;2023-04-03T08:10:20;101667.92;;;17.49;30.84
67803;BME280;54601;51.378;-1.342;2023-04-03T08:12:46;101668.17;;;17.59;30.76
67803;BME280;54601;51.378;-1.342;2023-04-03T08:15:10;101669.94;;;18.23;30.08
67803;BME280;54601;51.378;-1.342;2023-04-03T08:17:35;101668.54;;;18.03;30.22
67803;BME280;54601;51.378;-1.342;2023-04-03T08:20:01;101667.13;;;18.44;30.10
67803;BME280;54601;51.378;-1.342;2023-04-03T08:22:26;101671.82;;;18.97;29.62
67803;BME280;54601;51.378;-1.342;2023-04-03T08:24:51;101669.42;;;19.24;29.17
67803;BME280;54601;51.378;-1.342;2023-04-03T08:27:16;101668.06;;;18.69;29.49
67803;BME280;54601;51.378;-1.342;2023-04-03T08:29:41;101667.27;;;18.93;29.29
67803;BME280;54601;51.378;-1.342;2023-04-03T08:32:06;101666.85;;;18.81;29.27
67803;BME280;54601;51.378;-1.342;2023-04-03T08:34:31;101666.20;;;18.99;29.36
67803;BME280;54601;51.378;-1.342;2023-04-03T08:36:56;101663.02;;;19.31;28.90
67803;BME280;54601;51.378;-1.342;2023-04-03T08:39:21;101668.42;;;19.49;28.40
67803;BME280;54601;51.378;-1.342;2023-04-03T08:41:47;101670.44;;;19.25;29.14
67803;BME280;54601;51.378;-1.342;2023-04-03T08:44:17;101667.79;;;19.20;29.30
67803;BME280;54601;51.378;-1.342;2023-04-03T08:46:47;101667.86;;;18.86;29.42
67803;BME280;54601;51.378;-1.342;2023-04-03T08:49:02;101667.10;;;19.07;29.50
67803;BME280;54601;51.378;-1.342;2023-04-03T08:51:27;101664.69;;;19.17;29.43
67803;BME280;54601;51.378;-1.342;2023-04-03T08:53:56;101662.44;;;18.88;29.54
67803;BME280;54601;51.378;-1.342;2023-04-03T08:56:18;101665.62;;;19.17;29.28
67803;BME280;54601;51.378;-1.342;2023-04-03T08:58:47;101664.93;;;19.81;28.67
67803;BME280;54601;51.378;-1.342;2023-04-03T09:01:16;101663.44;;;19.68;28.52
67803;BME280;54601;51.378;-1.342;2023-04-03T09:03:36;101658.92;;;19.98;28.36
67803;BME280;54601;51.378;-1.342;2023-04-03T09:06:02;101658.80;;;19.93;28.30
67803;BME280;54601;51.378;-1.342;2023-04-03T09:08:25;101657.94;;;20.05;28.23
67803;BME280;54601;51.378;-1.342;2023-04-03T09:10:48;101657.01;;;20.01;28.33
67803;BME280;54601;51.378;-1.342;2023-04-03T09:13:21;101652.30;;;20.29;28.21
67803;BME280;54601;51.378;-1.342;2023-04-03T09:15:38;101650.67;;;20.73;27.78
67803;BME280;54601;51.378;-1.342;2023-04-03T09:18:06;101650.49;;;20.69;27.60
67803;BME280;54601;51.378;-1.342;2023-04-03T09:20:39;101651.71;;;20.78;27.38
67803;BME280;54601;51.378;-1.342;2023-04-03T09:22:54;101649.80;;;21.34;27.26
67803;BME280;54601;51.378;-1.342;2023-04-03T09:25:20;101647.86;;;21.04;27.11
67803;BME280;54601;51.378;-1.342;2023-04-03T09:27:43;101644.81;;;21.52;26.88
67803;BME280;54601;51.378;-1.342;2023-04-03T09:30:13;101648.97;;;21.20;27.24
67803;BME280;54601;51.378;-1.342;2023-04-03T09:32:35;101649.15;;;21.65;27.12
67803;BME280;54601;51.378;-1.342;2023-04-03T09:35:02;101652.90;;;21.38;27.14
67803;BME280;54601;51.378;-1.342;2023-04-03T09:39:50;101646.50;;;21.67;26.94
67803;BME280;54601;51.378;-1.342;2023-04-03T09:42:18;101648.13;;;21.79;26.84
67803;BME280;54601;51.378;-1.342;2023-04-03T09:44:39;101644.93;;;21.93;26.81
67803;BME280;54601;51.378;-1.342;2023-04-03T09:49:28;101643.72;;;21.70;26.88
67803;BME280;54601;51.378;-1.342;2023-04-03T09:51:53;101643.82;;;21.63;26.91
67803;BME280;54601;51.378;-1.342;2023-04-03T09:54:26;101639.92;;;21.24;27.13
67803;BME280;54601;51.378;-1.342;2023-04-03T09:56:49;101643.43;;;21.09;27.25
67803;BME280;54601;51.378;-1.342;2023-04-03T09:59:20;101645.15;;;21.12;27.46
67803;BME280;54601;51.378;-1.342;2023-04-03T10:01:36;101643.99;;;20.91;27.72
67803;BME280;54601;51.378;-1.342;2023-04-03T10:04:06;101640.41;;;21.20;27.76
67803;BME280;54601;51.378;-1.342;2023-04-03T10:06:25;101639.33;;;20.72;27.94
67803;BME280;54601;51.378;-1.342;2023-04-03T10:08:59;101639.80;;;20.79;27.90
67803;BME280;54601;51.378;-1.342;2023-04-03T10:11:15;101641.49;;;20.32;28.40
67803;BME280;54601;51.378;-1.342;2023-04-03T10:16:08;101640.25;;;20.73;28.20
67803;BME280;54601;51.378;-1.342;2023-04-03T10:18:36;101634.09;;;20.80;27.90
67803;BME280;54601;51.378;-1.342;2023-04-03T10:20:58;101635.66;;;20.83;28.20
67803;BME280;54601;51.378;-1.342;2023-04-03T10:23:23;101636.53;;;20.69;28.38
67803;BME280;54601;51.378;-1.342;2023-04-03T10:25:54;101629.44;;;20.49;28.19
67803;BME280;54601;51.378;-1.342;2023-04-03T10:28:16;101631.01;;;20.92;28.07
67803;BME280;54601;51.378;-1.342;2023-04-03T10:30:42;101633.92;;;20.78;28.14
67803;BME280;54601;51.378;-1.342;2023-04-03T10:33:10;101635.68;;;21.25;27.56
67803;BME280;54601;51.378;-1.342;2023-04-03T10:35:35;101632.07;;;21.00;27.86
67803;BME280;54601;51.378;-1.342;2023-04-03T10:37:58;101629.09;;;21.02;28.01
67803;BME280;54601;51.378;-1.342;2023-04-03T10:40:22;101623.50;;;21.31;27.65
67803;BME280;54601;51.378;-1.342;2023-04-03T10:42:44;101625.68;;;21.33;27.65
67803;BME280;54601;51.378;-1.342;2023-04-03T10:45:18;101625.58;;;20.91;27.80
67803;BME280;54601;51.378;-1.342;2023-04-03T10:47:36;101629.31;;;21.11;28.08
67803;BME280;54601;51.378;-1.342;2023-04-03T10:50:02;101625.37;;;20.78;28.16
67803;BME280;54601;51.378;-1.342;2023-04-03T10:52:23;101628.93;;;20.80;28.23
67803;BME280;54601;51.378;-1.342;2023-04-03T10:54:53;101629.66;;;20.95;28.22
67803;BME280;54601;51.378;-1.342;2023-04-03T10:57:11;101625.15;;;20.86;28.40
67803;BME280;54601;51.378;-1.342;2023-04-03T10:59:37;101627.54;;;20.42;28.57
67803;BME280;54601;51.378;-1.342;2023-04-03T11:02:05;101622.79;;;20.41;28.63
67803;BME280;54601;51.378;-1.342;2023-04-03T11:04:28;101619.03;;;20.61;28.60
67803;BME280;54601;51.378;-1.342;2023-04-03T11:06:53;101618.61;;;20.38;28.86
67803;BME280;54601;51.378;-1.342;2023-04-03T11:09:22;101618.84;;;20.53;28.73
67803;BME280;54601;51.378;-1.342;2023-04-03T11:11:41;101620.54;;;20.35;28.91
67803;BME280;54601;51.378;-1.342;2023-04-03T11:14:11;101614.82;;;20.13;29.09
67803;BME280;54601;51.378;-1.342;2023-04-03T11:16:34;101616.21;;;20.37;28.86
67803;BME280;54601;51.378;-1.342;2023-04-03T11:18:59;101617.47;;;20.20;29.03
67803;BME280;54601;51.378;-1.342;2023-04-03T11:21:24;101613.90;;;20.29;28.91
67803;BME280;54601;51.378;-1.342;2023-04-03T11:23:47;101607.22;;;20.24;28.96
67803;BME280;54601;51.378;-1.342;2023-04-03T11:26:12;101607.48;;;20.17;29.03
67803;BME280;54601;51.378;-1.342;2023-04-03T11:28:36;101606.79;;;20.13;29.08
67803;BME280;54601;51.378;-1.342;2023-04-03T11:31:10;101602.85;;;20.22;28.99
67803;BME280;54601;51.378;-1.342;2023-04-03T11:33:40;101603.14;;;20.33;28.88
67803;BME280;54601;51.378;-1.342;2023-04-03T11:35:53;101596.62;;;20.21;29.04
67803;BME280;54601;51.378;-1.342;2023-04-03T11:38:21;101594.65;;;20.36;28.86
67803;BME280;54601;51.378;-1.342;2023-04-03T11:40:44;101592.59;;;20.41;28.83
67803;BME280;54601;51.378;-1.342;2023-04-03T11:45:37;101592.32;;;20.23;29.01
67803;BME280;54601;51.378;-1.342;2023-04-03T11:47:58;101586.82;;;20.28;28.98
67803;BME280;54601;51.378;-1.342;2023-04-03T11:57:43;101581.52;;;20.12;28.86
67803;BME280;54601;51.378;-1.342;2023-04-03T12:02:36;101574.74;;;20.39;28.88
67803;BME280;54601;51.378;-1.342;2023-04-03T12:07:18;101564.27;;;20.30;29.02
67803;BME280;54601;51.378;-1.342;2023-04-03T12:14:33;101551.39;;;20.33;28.98
67803;BME280;54601;51.378;-1.342;2023-04-03T12:16:58;101557.11;;;20.18;29.17
67803;BME280;54601;51.378;-1.342;2023-04-03T12:19:30;101557.70;;;20.20;29.13
67803;BME280;54601;51.378;-1.342;2023-04-03T12:26:41;101552.69;;;20.30;29.06
67803;BME280;54601;51.378;-1.342;2023-04-03T12:29:12;101550.57;;;20.03;29.03
67803;BME280;54601;51.378;-1.342;2023-04-03T12:31:38;101548.25;;;20.12;28.93
67803;BME280;54601;51.378;-1.342;2023-04-03T12:34:04;101541.66;;;20.18;29.12
67803;BME280;54601;51.378;-1.342;2023-04-03T12:36:25;101541.20;;;20.00;29.35
67803;BME280;54601;51.378;-1.342;2023-04-03T12:39:01;101531.95;;;20.27;29.05
67803;BME280;54601;51.378;-1.342;2023-04-03T12:41:19;101530.23;;;19.87;29.14
67803;BME280;54601;51.378;-1.342;2023-04-03T12:43:42;101532.14;;;19.91;29.11
67803;BME280;54601;51.378;-1.342;2023-04-03T12:46:03;101528.52;;;20.28;28.98
67803;BME280;54601;51.378;-1.342;2023-04-03T12:48:26;101528.12;;;20.19;29.07
67803;BME280;54601;51.378;-1.342;2023-04-03T12:50:49;101527.83;;;19.99;29.31
67803;BME280;54601;51.378;-1.342;2023-04-03T12:53:18;101527.36;;;20.00;29.33
67803;BME280;54601;51.378;-1.342;2023-04-03T12:55:39;101527.33;;;20.00;29.32
67803;BME280;54601;51.378;-1.342;2023-04-03T13:00:32;101522.52;;;19.94;29.32
67803;BME280;54601;51.378;-1.342;2023-04-03T13:02:54;101520.29;;;19.97;29.30
67803;BME280;54601;51.378;-1.342;2023-04-03T13:05:21;101517.01;;;20.33;28.91
67803;BME280;54601;51.378;-1.342;2023-04-03T13:07:49;101514.34;;;20.15;29.06